Aérodrome :
LOGIN :

S'inscrire | Disclaimer

   EN    FR    IT 

 










Légende :    VFR   VFR Marginal   IFR   IFR Intensif   IFR Très Intensif
Visi : 
Plafond : 
>= 8 km
>= 3000ft
5 à 8 km
1000 à 3000 ft
1500m à 5 km
500 à 1000 ft
800 à 1500m
200 à 500 ft
< 800m
< 200 ft
Symboles :   Orages  Brouillard  Fortes neiges  Fortes précipitations  Vent > 20 kt
SIGMETs :   Divers  Orages  Givrage  Turbulence  Onde Orograph.  Cendres Volcan.






- Altitude de l'aérodrome : 580 ft


LFOA - Avord

DERNIER METAR :
  • 182230Z AUTO 23011KT CAVOK 06/04 Q1028 TEMPO 27015G30KT 3000 RA BKN007 OVC020 BKN020CB

METARs EXPIRÉS :
  • 182200Z AUTO 23011KT CAVOK 06/04 Q1028 BECMG 24015G25KT
  • 182130Z AUTO 23012KT 9999 SCT047 SCT150 07/04 Q1028 BECMG 24015G25KT
  • 182100Z AUTO 23010KT 9999 BKN032 BKN150 07/04 Q1028 BECMG 24015G25KT
  • 182030Z AUTO 22009KT 9999 BKN034 BKN047 BKN140 07/04 Q1028 BECMG 24015G25KT
  • 182000Z AUTO 23009KT 9999 BKN047 BKN054 BKN200 07/04 Q1028 BECMG 24015G25KT

TAF TAF LFOA
Valide du 18 à 21h jusqu'au 19 à 21h UTC


182000Z 1821/1921 22010KT CAVOK
BECMG 1821/1824 24015G25KT SCT008 BKN020
TEMPO 1900/1907 27015G30KT 3000 RA BKN007 OVC020 BKN020CB
BECMG 1907/1909 29010KT FEW015
BECMG 1918/1920 19008KT



MET'MAP, la Météo Aéronautique d'un coup d'oeil ! - Copyright ORBIFLY Décembre 2007 - Disclaimer

ORBIFLY MET'MAP TEAM :

Programmation & Développement : Alexandra Zaïnal
Sur une idée originale de : Baudouin d'Aumeries
Assistance à la programmation : Marc-Olivier Méhu
Soutien technique & logistique : Manuel Goepfert

Contact : metmap@orbifly.com




SOURCES & CREDITS :

   NOAA